sensor_id;sensor_type;location;lat;lon;timestamp;P1;durP1;ratioP1;P2;durP2;ratioP2
77709;SDS011;66880;51.438;-2.006;2023-01-16T00:00:58;5.20;;;1.30;;
77709;SDS011;66880;51.438;-2.006;2023-01-16T00:03:39;8.07;;;2.70;;
77709;SDS011;66880;51.438;-2.006;2023-01-16T00:06:19;7.82;;;2.20;;
77709;SDS011;66880;51.438;-2.006;2023-01-16T00:09:04;4.28;;;1.60;;
77709;SDS011;66880;51.438;-2.006;2023-01-16T00:11:46;4.32;;;1.63;;
77709;SDS011;66880;51.438;-2.006;2023-01-16T00:14:30;9.52;;;1.90;;
77709;SDS011;66880;51.438;-2.006;2023-01-16T00:17:09;5.25;;;1.48;;
77709;SDS011;66880;51.438;-2.006;2023-01-16T00:19:51;7.47;;;1.90;;
77709;SDS011;66880;51.438;-2.006;2023-01-16T00:22:31;4.50;;;1.42;;
77709;SDS011;66880;51.438;-2.006;2023-01-16T00:25:15;3.08;;;1.10;;
77709;SDS011;66880;51.438;-2.006;2023-01-16T00:27:55;12.00;;;2.33;;
77709;SDS011;66880;51.438;-2.006;2023-01-16T00:30:38;5.43;;;1.60;;
77709;SDS011;66880;51.438;-2.006;2023-01-16T00:33:18;6.78;;;1.83;;
77709;SDS011;66880;51.438;-2.006;2023-01-16T00:36:00;4.18;;;1.73;;
77709;SDS011;66880;51.438;-2.006;2023-01-16T00:38:40;8.43;;;1.73;;
77709;SDS011;66880;51.438;-2.006;2023-01-16T00:41:24;10.18;;;2.08;;
77709;SDS011;66880;51.438;-2.006;2023-01-16T00:44:04;9.73;;;1.90;;
77709;SDS011;66880;51.438;-2.006;2023-01-16T00:46:45;6.82;;;2.58;;
77709;SDS011;66880;51.438;-2.006;2023-01-16T00:49:24;8.88;;;1.55;;
77709;SDS011;66880;51.438;-2.006;2023-01-16T00:52:07;5.38;;;1.80;;
77709;SDS011;66880;51.438;-2.006;2023-01-16T00:54:49;9.95;;;2.00;;
77709;SDS011;66880;51.438;-2.006;2023-01-16T00:57:32;4.25;;;1.95;;
77709;SDS011;66880;51.438;-2.006;2023-01-16T01:00:11;6.47;;;2.03;;
77709;SDS011;66880;51.438;-2.006;2023-01-16T01:02:51;6.18;;;1.80;;
77709;SDS011;66880;51.438;-2.006;2023-01-16T01:05:30;3.70;;;1.58;;
77709;SDS011;66880;51.438;-2.006;2023-01-16T01:08:11;10.30;;;1.77;;
77709;SDS011;66880;51.438;-2.006;2023-01-16T01:10:50;11.52;;;2.20;;
77709;SDS011;66880;51.438;-2.006;2023-01-16T01:13:32;6.03;;;2.30;;
77709;SDS011;66880;51.438;-2.006;2023-01-16T01:16:12;5.15;;;1.80;;
77709;SDS011;66880;51.438;-2.006;2023-01-16T01:18:55;9.90;;;2.40;;
77709;SDS011;66880;51.438;-2.006;2023-01-16T01:21:34;5.45;;;2.05;;
77709;SDS011;66880;51.438;-2.006;2023-01-16T01:24:19;7.72;;;1.88;;
77709;SDS011;66880;51.438;-2.006;2023-01-16T01:26:59;5.88;;;1.90;;
77709;SDS011;66880;51.438;-2.006;2023-01-16T01:29:41;3.35;;;1.80;;
77709;SDS011;66880;51.438;-2.006;2023-01-16T01:32:20;3.80;;;1.50;;
77709;SDS011;66880;51.438;-2.006;2023-01-16T01:35:01;7.85;;;2.10;;
77709;SDS011;66880;51.438;-2.006;2023-01-16T01:37:41;4.53;;;1.13;;
77709;SDS011;66880;51.438;-2.006;2023-01-16T01:40:24;4.38;;;1.50;;
77709;SDS011;66880;51.438;-2.006;2023-01-16T01:43:09;8.88;;;1.90;;
77709;SDS011;66880;51.438;-2.006;2023-01-16T01:45:53;4.18;;;1.65;;
77709;SDS011;66880;51.438;-2.006;2023-01-16T01:48:35;3.63;;;1.67;;
77709;SDS011;66880;51.438;-2.006;2023-01-16T01:51:19;5.63;;;2.22;;
77709;SDS011;66880;51.438;-2.006;2023-01-16T01:54:05;7.13;;;2.15;;
77709;SDS011;66880;51.438;-2.006;2023-01-16T01:56:49;3.33;;;1.55;;
77709;SDS011;66880;51.438;-2.006;2023-01-16T01:59:28;4.45;;;1.92;;
77709;SDS011;66880;51.438;-2.006;2023-01-16T02:02:08;4.35;;;1.80;;
77709;SDS011;66880;51.438;-2.006;2023-01-16T02:04:47;6.25;;;2.58;;
77709;SDS011;66880;51.438;-2.006;2023-01-16T02:07:28;4.47;;;1.55;;
77709;SDS011;66880;51.438;-2.006;2023-01-16T02:10:14;5.18;;;2.00;;
77709;SDS011;66880;51.438;-2.006;2023-01-16T02:12:49;8.32;;;2.05;;
77709;SDS011;66880;51.438;-2.006;2023-01-16T02:15:29;4.18;;;1.77;;
77709;SDS011;66880;51.438;-2.006;2023-01-16T02:18:31;5.15;;;1.80;;
77709;SDS011;66880;51.438;-2.006;2023-01-16T02:21:55;3.28;;;2.08;;
77709;SDS011;66880;51.438;-2.006;2023-01-16T02:27:21;6.68;;;2.47;;
77709;SDS011;66880;51.438;-2.006;2023-01-16T02:30:21;8.35;;;2.85;;
77709;SDS011;66880;51.438;-2.006;2023-01-16T02:41:16;6.00;;;1.92;;
77709;SDS011;66880;51.438;-2.006;2023-01-16T02:49:34;7.63;;;2.05;;
77709;SDS011;66880;51.438;-2.006;2023-01-16T02:52:24;7.95;;;1.77;;
77709;SDS011;66880;51.438;-2.006;2023-01-16T02:55:12;5.72;;;2.22;;
77709;SDS011;66880;51.438;-2.006;2023-01-16T02:57:55;9.73;;;2.28;;
77709;SDS011;66880;51.438;-2.006;2023-01-16T03:00:34;3.50;;;1.45;;
77709;SDS011;66880;51.438;-2.006;2023-01-16T03:03:28;10.05;;;1.52;;
77709;SDS011;66880;51.438;-2.006;2023-01-16T03:06:03;9.00;;;2.38;;
77709;SDS011;66880;51.438;-2.006;2023-01-16T03:14:58;5.60;;;1.48;;
77709;SDS011;66880;51.438;-2.006;2023-01-16T03:21:13;5.57;;;1.45;;
77709;SDS011;66880;51.438;-2.006;2023-01-16T03:23:57;5.00;;;1.70;;
77709;SDS011;66880;51.438;-2.006;2023-01-16T03:26:43;5.60;;;1.48;;
77709;SDS011;66880;51.438;-2.006;2023-01-16T03:29:32;4.80;;;1.40;;
77709;SDS011;66880;51.438;-2.006;2023-01-16T03:32:34;5.80;;;1.90;;
77709;SDS011;66880;51.438;-2.006;2023-01-16T03:35:17;5.00;;;1.70;;
77709;SDS011;66880;51.438;-2.006;2023-01-16T03:38:06;4.78;;;2.00;;
77709;SDS011;66880;51.438;-2.006;2023-01-16T03:40:46;4.82;;;1.50;;
77709;SDS011;66880;51.438;-2.006;2023-01-16T03:43:35;7.85;;;1.85;;
77709;SDS011;66880;51.438;-2.006;2023-01-16T03:46:15;3.40;;;1.25;;
77709;SDS011;66880;51.438;-2.006;2023-01-16T03:49:12;4.20;;;1.20;;
77709;SDS011;66880;51.438;-2.006;2023-01-16T03:51:53;6.82;;;1.33;;
77709;SDS011;66880;51.438;-2.006;2023-01-16T03:57:24;8.10;;;2.25;;
77709;SDS011;66880;51.438;-2.006;2023-01-16T04:00:02;7.65;;;2.85;;
77709;SDS011;66880;51.438;-2.006;2023-01-16T04:02:51;5.55;;;1.20;;
77709;SDS011;66880;51.438;-2.006;2023-01-16T04:05:42;4.95;;;1.67;;
77709;SDS011;66880;51.438;-2.006;2023-01-16T04:08:19;11.05;;;2.55;;
77709;SDS011;66880;51.438;-2.006;2023-01-16T04:10:59;5.57;;;1.45;;
77709;SDS011;66880;51.438;-2.006;2023-01-16T04:13:38;6.43;;;1.88;;
77709;SDS011;66880;51.438;-2.006;2023-01-16T04:16:17;3.13;;;1.10;;
77709;SDS011;66880;51.438;-2.006;2023-01-16T04:18:55;5.00;;;1.13;;
77709;SDS011;66880;51.438;-2.006;2023-01-16T04:21:42;6.03;;;1.23;;
77709;SDS011;66880;51.438;-2.006;2023-01-16T04:24:20;2.22;;;0.70;;
77709;SDS011;66880;51.438;-2.006;2023-01-16T04:27:03;2.78;;;0.98;;
77709;SDS011;66880;51.438;-2.006;2023-01-16T04:29:41;6.05;;;1.40;;
77709;SDS011;66880;51.438;-2.006;2023-01-16T04:32:22;4.85;;;1.17;;
77709;SDS011;66880;51.438;-2.006;2023-01-16T04:35:02;7.25;;;1.20;;
77709;SDS011;66880;51.438;-2.006;2023-01-16T04:37:43;2.92;;;1.52;;
77709;SDS011;66880;51.438;-2.006;2023-01-16T04:40:23;7.85;;;1.20;;
77709;SDS011;66880;51.438;-2.006;2023-01-16T04:43:06;4.55;;;1.20;;
77709;SDS011;66880;51.438;-2.006;2023-01-16T04:45:46;3.13;;;1.00;;
77709;SDS011;66880;51.438;-2.006;2023-01-16T04:48:30;4.88;;;1.15;;
77709;SDS011;66880;51.438;-2.006;2023-01-16T04:51:10;7.30;;;1.10;;
77709;SDS011;66880;51.438;-2.006;2023-01-16T04:53:54;2.75;;;0.80;;
77709;SDS011;66880;51.438;-2.006;2023-01-16T04:56:33;8.02;;;1.38;;
77709;SDS011;66880;51.438;-2.006;2023-01-16T04:59:16;10.73;;;1.77;;
77709;SDS011;66880;51.438;-2.006;2023-01-16T05:01:58;6.10;;;1.13;;
77709;SDS011;66880;51.438;-2.006;2023-01-16T05:04:40;4.35;;;1.42;;
77709;SDS011;66880;51.438;-2.006;2023-01-16T05:07:20;5.10;;;1.67;;
77709;SDS011;66880;51.438;-2.006;2023-01-16T05:10:05;6.75;;;1.40;;
77709;SDS011;66880;51.438;-2.006;2023-01-16T05:12:46;10.07;;;1.40;;
77709;SDS011;66880;51.438;-2.006;2023-01-16T05:15:31;6.15;;;1.45;;
77709;SDS011;66880;51.438;-2.006;2023-01-16T05:18:14;3.92;;;1.70;;
77709;SDS011;66880;51.438;-2.006;2023-01-16T05:20:58;8.65;;;1.48;;
77709;SDS011;66880;51.438;-2.006;2023-01-16T05:23:38;4.90;;;1.45;;
77709;SDS011;66880;51.438;-2.006;2023-01-16T05:26:21;7.53;;;1.63;;
77709;SDS011;66880;51.438;-2.006;2023-01-16T05:29:02;4.75;;;1.95;;
77709;SDS011;66880;51.438;-2.006;2023-01-16T05:31:45;5.43;;;1.40;;
77709;SDS011;66880;51.438;-2.006;2023-01-16T05:34:25;5.40;;;1.48;;
77709;SDS011;66880;51.438;-2.006;2023-01-16T05:37:09;7.20;;;1.50;;
77709;SDS011;66880;51.438;-2.006;2023-01-16T05:39:49;5.88;;;1.33;;
77709;SDS011;66880;51.438;-2.006;2023-01-16T05:42:34;5.95;;;2.17;;
77709;SDS011;66880;51.438;-2.006;2023-01-16T05:45:15;5.03;;;1.38;;
77709;SDS011;66880;51.438;-2.006;2023-01-16T05:47:58;4.90;;;1.65;;
77709;SDS011;66880;51.438;-2.006;2023-01-16T05:50:38;5.28;;;1.70;;
77709;SDS011;66880;51.438;-2.006;2023-01-16T05:53:20;2.60;;;1.77;;
77709;SDS011;66880;51.438;-2.006;2023-01-16T05:56:05;3.53;;;1.40;;
77709;SDS011;66880;51.438;-2.006;2023-01-16T05:58:43;3.42;;;1.58;;
77709;SDS011;66880;51.438;-2.006;2023-01-16T06:01:25;3.78;;;1.38;;
77709;SDS011;66880;51.438;-2.006;2023-01-16T06:04:07;4.82;;;1.55;;
77709;SDS011;66880;51.438;-2.006;2023-01-16T06:06:33;1.95;;;1.50;;
77709;SDS011;66880;51.438;-2.006;2023-01-16T06:08:59;3.30;;;1.65;;
77709;SDS011;66880;51.438;-2.006;2023-01-16T06:11:25;2.10;;;1.35;;
77709;SDS011;66880;51.438;-2.006;2023-01-16T06:13:51;3.85;;;1.38;;
77709;SDS011;66880;51.438;-2.006;2023-01-16T06:16:16;1.50;;;1.40;;
77709;SDS011;66880;51.438;-2.006;2023-01-16T06:18:42;2.20;;;1.27;;
77709;SDS011;66880;51.438;-2.006;2023-01-16T06:21:08;2.65;;;1.50;;
77709;SDS011;66880;51.438;-2.006;2023-01-16T06:23:33;2.40;;;1.42;;
77709;SDS011;66880;51.438;-2.006;2023-01-16T06:25:59;4.65;;;1.25;;
77709;SDS011;66880;51.438;-2.006;2023-01-16T06:28:26;3.03;;;1.42;;
77709;SDS011;66880;51.438;-2.006;2023-01-16T06:30:51;2.97;;;1.48;;
77709;SDS011;66880;51.438;-2.006;2023-01-16T06:33:17;4.68;;;1.35;;
77709;SDS011;66880;51.438;-2.006;2023-01-16T06:35:43;5.28;;;1.38;;
77709;SDS011;66880;51.438;-2.006;2023-01-16T06:38:09;4.22;;;1.73;;
77709;SDS011;66880;51.438;-2.006;2023-01-16T06:40:34;4.65;;;1.30;;
77709;SDS011;66880;51.438;-2.006;2023-01-16T06:43:00;3.85;;;1.42;;
77709;SDS011;66880;51.438;-2.006;2023-01-16T06:45:26;4.20;;;1.33;;
77709;SDS011;66880;51.438;-2.006;2023-01-16T06:47:52;1.65;;;1.33;;
77709;SDS011;66880;51.438;-2.006;2023-01-16T06:50:18;2.25;;;1.30;;
77709;SDS011;66880;51.438;-2.006;2023-01-16T06:52:44;2.25;;;1.05;;
77709;SDS011;66880;51.438;-2.006;2023-01-16T06:55:10;3.15;;;1.50;;
77709;SDS011;66880;51.438;-2.006;2023-01-16T06:57:37;2.78;;;1.23;;
77709;SDS011;66880;51.438;-2.006;2023-01-16T07:00:03;1.83;;;1.10;;
77709;SDS011;66880;51.438;-2.006;2023-01-16T07:02:29;3.67;;;1.40;;
77709;SDS011;66880;51.438;-2.006;2023-01-16T07:04:55;5.63;;;1.48;;
77709;SDS011;66880;51.438;-2.006;2023-01-16T07:07:21;2.80;;;1.30;;
77709;SDS011;66880;51.438;-2.006;2023-01-16T07:09:46;2.25;;;1.42;;
77709;SDS011;66880;51.438;-2.006;2023-01-16T07:12:15;7.47;;;2.10;;
77709;SDS011;66880;51.438;-2.006;2023-01-16T07:14:55;5.80;;;1.88;;
77709;SDS011;66880;51.438;-2.006;2023-01-16T07:17:40;2.90;;;1.75;;
77709;SDS011;66880;51.438;-2.006;2023-01-16T07:20:33;3.10;;;1.80;;
77709;SDS011;66880;51.438;-2.006;2023-01-16T07:23:30;2.55;;;1.67;;
77709;SDS011;66880;51.438;-2.006;2023-01-16T07:26:11;4.78;;;1.77;;
77709;SDS011;66880;51.438;-2.006;2023-01-16T07:28:51;1.40;;;1.30;;
77709;SDS011;66880;51.438;-2.006;2023-01-16T07:31:31;2.05;;;1.42;;
77709;SDS011;66880;51.438;-2.006;2023-01-16T07:34:11;3.47;;;1.45;;
77709;SDS011;66880;51.438;-2.006;2023-01-16T07:36:56;4.32;;;1.60;;
77709;SDS011;66880;51.438;-2.006;2023-01-16T07:39:36;2.35;;;1.73;;
77709;SDS011;66880;51.438;-2.006;2023-01-16T07:42:20;2.17;;;1.50;;
77709;SDS011;66880;51.438;-2.006;2023-01-16T07:45:01;4.78;;;2.40;;
77709;SDS011;66880;51.438;-2.006;2023-01-16T07:47:43;1.65;;;1.50;;
77709;SDS011;66880;51.438;-2.006;2023-01-16T07:50:23;3.95;;;1.70;;
77709;SDS011;66880;51.438;-2.006;2023-01-16T07:53:09;2.20;;;1.60;;
77709;SDS011;66880;51.438;-2.006;2023-01-16T07:55:50;3.13;;;2.00;;
77709;SDS011;66880;51.438;-2.006;2023-01-16T07:58:18;2.97;;;1.90;;
77709;SDS011;66880;51.438;-2.006;2023-01-16T08:00:44;1.83;;;1.50;;
77709;SDS011;66880;51.438;-2.006;2023-01-16T08:03:10;3.13;;;1.90;;
77709;SDS011;66880;51.438;-2.006;2023-01-16T08:05:37;3.05;;;1.80;;
77709;SDS011;66880;51.438;-2.006;2023-01-16T08:08:08;4.72;;;1.95;;
77709;SDS011;66880;51.438;-2.006;2023-01-16T08:10:35;1.83;;;1.50;;
77709;SDS011;66880;51.438;-2.006;2023-01-16T08:13:01;2.33;;;1.52;;
77709;SDS011;66880;51.438;-2.006;2023-01-16T08:15:27;1.83;;;1.25;;
77709;SDS011;66880;51.438;-2.006;2023-01-16T08:18:14;1.77;;;1.60;;
77709;SDS011;66880;51.438;-2.006;2023-01-16T08:20:53;1.75;;;1.65;;
77709;SDS011;66880;51.438;-2.006;2023-01-16T08:23:35;2.97;;;1.90;;
77709;SDS011;66880;51.438;-2.006;2023-01-16T08:26:13;2.60;;;1.67;;
77709;SDS011;66880;51.438;-2.006;2023-01-16T08:28:57;2.13;;;1.60;;
77709;SDS011;66880;51.438;-2.006;2023-01-16T08:31:23;2.33;;;1.70;;
77709;SDS011;66880;51.438;-2.006;2023-01-16T08:34:07;3.20;;;1.42;;
77709;SDS011;66880;51.438;-2.006;2023-01-16T08:36:46;2.78;;;2.30;;
77709;SDS011;66880;51.438;-2.006;2023-01-16T08:39:31;2.17;;;1.60;;
77709;SDS011;66880;51.438;-2.006;2023-01-16T08:42:09;2.47;;;1.48;;
77709;SDS011;66880;51.438;-2.006;2023-01-16T08:45:11;2.20;;;1.42;;
77709;SDS011;66880;51.438;-2.006;2023-01-16T08:48:01;2.15;;;1.52;;
77709;SDS011;66880;51.438;-2.006;2023-01-16T08:50:57;4.45;;;2.15;;
77709;SDS011;66880;51.438;-2.006;2023-01-16T08:53:49;2.58;;;1.70;;
77709;SDS011;66880;51.438;-2.006;2023-01-16T08:56:19;4.68;;;1.60;;
77709;SDS011;66880;51.438;-2.006;2023-01-16T08:58:46;2.45;;;1.40;;
77709;SDS011;66880;51.438;-2.006;2023-01-16T09:01:12;3.88;;;1.50;;
77709;SDS011;66880;51.438;-2.006;2023-01-16T09:03:38;1.67;;;1.17;;
77709;SDS011;66880;51.438;-2.006;2023-01-16T09:06:03;11.63;;;1.85;;
77709;SDS011;66880;51.438;-2.006;2023-01-16T09:08:44;12.13;;;1.58;;
77709;SDS011;66880;51.438;-2.006;2023-01-16T09:11:23;10.40;;;1.40;;
77709;SDS011;66880;51.438;-2.006;2023-01-16T09:14:10;3.03;;;1.30;;
77709;SDS011;66880;51.438;-2.006;2023-01-16T09:16:36;2.83;;;1.23;;
77709;SDS011;66880;51.438;-2.006;2023-01-16T09:19:01;3.35;;;1.42;;
77709;SDS011;66880;51.438;-2.006;2023-01-16T09:21:27;4.13;;;1.10;;
77709;SDS011;66880;51.438;-2.006;2023-01-16T09:23:56;2.10;;;1.10;;
77709;SDS011;66880;51.438;-2.006;2023-01-16T09:26:22;1.65;;;1.10;;
77709;SDS011;66880;51.438;-2.006;2023-01-16T09:28:47;2.90;;;1.20;;
77709;SDS011;66880;51.438;-2.006;2023-01-16T09:31:13;1.55;;;1.10;;
77709;SDS011;66880;51.438;-2.006;2023-01-16T09:33:39;1.42;;;0.90;;
77709;SDS011;66880;51.438;-2.006;2023-01-16T09:36:06;1.55;;;0.90;;
77709;SDS011;66880;51.438;-2.006;2023-01-16T09:38:32;1.00;;;0.70;;
77709;SDS011;66880;51.438;-2.006;2023-01-16T09:40:58;2.28;;;0.70;;
77709;SDS011;66880;51.438;-2.006;2023-01-16T09:43:27;1.77;;;0.85;;
77709;SDS011;66880;51.438;-2.006;2023-01-16T09:48:54;2.15;;;0.80;;
77709;SDS011;66880;51.438;-2.006;2023-01-16T09:51:28;2.33;;;0.68;;
77709;SDS011;66880;51.438;-2.006;2023-01-16T09:53:59;0.75;;;0.75;;
77709;SDS011;66880;51.438;-2.006;2023-01-16T09:56:48;0.70;;;0.70;;
77709;SDS011;66880;51.438;-2.006;2023-01-16T09:59:38;2.85;;;1.55;;
77709;SDS011;66880;51.438;-2.006;2023-01-16T10:02:17;0.95;;;0.57;;
77709;SDS011;66880;51.438;-2.006;2023-01-16T10:04:51;0.50;;;0.50;;
77709;SDS011;66880;51.438;-2.006;2023-01-16T10:07:22;0.60;;;0.60;;
77709;SDS011;66880;51.438;-2.006;2023-01-16T10:10:55;2.03;;;0.50;;
77709;SDS011;66880;51.438;-2.006;2023-01-16T10:24:18;0.93;;;0.68;;
77709;SDS011;66880;51.438;-2.006;2023-01-16T10:35:34;3.55;;;0.68;;
77709;SDS011;66880;51.438;-2.006;2023-01-16T10:41:15;2.38;;;0.80;;
77709;SDS011;66880;51.438;-2.006;2023-01-16T10:44:12;1.55;;;0.30;;
77709;SDS011;66880;51.438;-2.006;2023-01-16T10:47:30;0.70;;;0.40;;
77709;SDS011;66880;51.438;-2.006;2023-01-16T10:50:23;1.83;;;0.88;;
77709;SDS011;66880;51.438;-2.006;2023-01-16T10:53:04;1.63;;;0.60;;
77709;SDS011;66880;51.438;-2.006;2023-01-16T10:55:44;0.77;;;0.40;;
77709;SDS011;66880;51.438;-2.006;2023-01-16T10:58:25;1.27;;;0.77;;
77709;SDS011;66880;51.438;-2.006;2023-01-16T11:01:13;3.40;;;0.45;;
77709;SDS011;66880;51.438;-2.006;2023-01-16T11:03:56;1.20;;;0.43;;
77709;SDS011;66880;51.438;-2.006;2023-01-16T11:06:26;5.78;;;1.40;;
77709;SDS011;66880;51.438;-2.006;2023-01-16T11:11:43;1.02;;;0.55;;
77709;SDS011;66880;51.438;-2.006;2023-01-16T11:14:41;2.92;;;0.57;;
77709;SDS011;66880;51.438;-2.006;2023-01-16T11:17:34;3.35;;;0.60;;
77709;SDS011;66880;51.438;-2.006;2023-01-16T11:23:14;6.43;;;0.70;;
77709;SDS011;66880;51.438;-2.006;2023-01-16T11:25:45;0.45;;;0.40;;
77709;SDS011;66880;51.438;-2.006;2023-01-16T11:28:19;0.47;;;0.35;;
77709;SDS011;66880;51.438;-2.006;2023-01-16T11:30:48;1.58;;;0.60;;
77709;SDS011;66880;51.438;-2.006;2023-01-16T11:33:20;0.38;;;0.38;;
77709;SDS011;66880;51.438;-2.006;2023-01-16T11:36:00;0.57;;;0.57;;
77709;SDS011;66880;51.438;-2.006;2023-01-16T11:38:27;0.40;;;0.40;;
77709;SDS011;66880;51.438;-2.006;2023-01-16T11:40:56;0.52;;;0.50;;
77709;SDS011;66880;51.438;-2.006;2023-01-16T11:43:25;0.22;;;0.22;;
77709;SDS011;66880;51.438;-2.006;2023-01-16T11:49:16;1.58;;;0.57;;
77709;SDS011;66880;51.438;-2.006;2023-01-16T11:51:49;4.75;;;0.73;;
77709;SDS011;66880;51.438;-2.006;2023-01-16T11:54:19;0.95;;;0.57;;
77709;SDS011;66880;51.438;-2.006;2023-01-16T11:59:38;0.90;;;0.43;;
77709;SDS011;66880;51.438;-2.006;2023-01-16T12:05:24;1.58;;;0.70;;
77709;SDS011;66880;51.438;-2.006;2023-01-16T12:08:18;1.58;;;0.57;;
77709;SDS011;66880;51.438;-2.006;2023-01-16T12:13:43;1.75;;;0.55;;
77709;SDS011;66880;51.438;-2.006;2023-01-16T12:24:48;0.22;;;0.22;;
77709;SDS011;66880;51.438;-2.006;2023-01-16T12:36:06;0.85;;;0.20;;
77709;SDS011;66880;51.438;-2.006;2023-01-16T12:38:36;0.82;;;0.40;;
77709;SDS011;66880;51.438;-2.006;2023-01-16T12:41:11;0.68;;;0.30;;
77709;SDS011;66880;51.438;-2.006;2023-01-16T12:44:00;1.83;;;0.52;;
77709;SDS011;66880;51.438;-2.006;2023-01-16T12:49:41;0.60;;;0.40;;
77709;SDS011;66880;51.438;-2.006;2023-01-16T13:00:13;0.20;;;0.20;;
77709;SDS011;66880;51.438;-2.006;2023-01-16T13:03:02;1.50;;;0.60;;
77709;SDS011;66880;51.438;-2.006;2023-01-16T13:05:41;0.82;;;0.40;;
77709;SDS011;66880;51.438;-2.006;2023-01-16T13:08:38;1.30;;;0.98;;
77709;SDS011;66880;51.438;-2.006;2023-01-16T13:11:25;1.63;;;0.40;;
77709;SDS011;66880;51.438;-2.006;2023-01-16T13:14:19;2.03;;;0.60;;
77709;SDS011;66880;51.438;-2.006;2023-01-16T13:19:29;1.15;;;0.70;;
77709;SDS011;66880;51.438;-2.006;2023-01-16T13:22:23;1.98;;;0.90;;
77709;SDS011;66880;51.438;-2.006;2023-01-16T13:25:19;3.17;;;1.00;;
77709;SDS011;66880;51.438;-2.006;2023-01-16T13:28:06;2.85;;;1.00;;
77709;SDS011;66880;51.438;-2.006;2023-01-16T13:30:41;1.50;;;0.40;;
77709;SDS011;66880;51.438;-2.006;2023-01-16T13:33:20;3.47;;;0.65;;
77709;SDS011;66880;51.438;-2.006;2023-01-16T13:39:17;0.95;;;0.73;;
77709;SDS011;66880;51.438;-2.006;2023-01-16T13:42:06;1.20;;;0.60;;
77709;SDS011;66880;51.438;-2.006;2023-01-16T13:44:36;4.18;;;0.70;;
77709;SDS011;66880;51.438;-2.006;2023-01-16T13:47:24;2.30;;;0.65;;
77709;SDS011;66880;51.438;-2.006;2023-01-16T13:49:54;3.08;;;0.65;;
77709;SDS011;66880;51.438;-2.006;2023-01-16T13:52:26;1.88;;;0.70;;
77709;SDS011;66880;51.438;-2.006;2023-01-16T13:54:57;7.82;;;1.40;;
77709;SDS011;66880;51.438;-2.006;2023-01-16T13:57:26;1.27;;;0.52;;
77709;SDS011;66880;51.438;-2.006;2023-01-16T13:59:54;1.95;;;0.45;;
77709;SDS011;66880;51.438;-2.006;2023-01-16T14:02:43;0.90;;;0.47;;
77709;SDS011;66880;51.438;-2.006;2023-01-16T14:21:41;3.70;;;0.45;;
77709;SDS011;66880;51.438;-2.006;2023-01-16T14:24:18;6.05;;;0.60;;
77709;SDS011;66880;51.438;-2.006;2023-01-16T14:29:25;1.67;;;0.50;;
77709;SDS011;66880;51.438;-2.006;2023-01-16T14:34:38;1.92;;;0.50;;
77709;SDS011;66880;51.438;-2.006;2023-01-16T14:37:17;1.52;;;0.75;;
77709;SDS011;66880;51.438;-2.006;2023-01-16T14:39:49;3.35;;;0.65;;
77709;SDS011;66880;51.438;-2.006;2023-01-16T14:42:23;5.07;;;1.15;;
77709;SDS011;66880;51.438;-2.006;2023-01-16T14:45:27;3.67;;;0.47;;
77709;SDS011;66880;51.438;-2.006;2023-01-16T14:48:14;2.45;;;0.77;;
77709;SDS011;66880;51.438;-2.006;2023-01-16T14:57:00;1.95;;;0.52;;
77709;SDS011;66880;51.438;-2.006;2023-01-16T14:59:35;2.33;;;0.50;;
77709;SDS011;66880;51.438;-2.006;2023-01-16T15:04:52;1.13;;;0.68;;
77709;SDS011;66880;51.438;-2.006;2023-01-16T15:07:50;2.83;;;0.60;;
77709;SDS011;66880;51.438;-2.006;2023-01-16T15:10:38;4.28;;;0.65;;
77709;SDS011;66880;51.438;-2.006;2023-01-16T15:13:24;1.48;;;0.55;;
77709;SDS011;66880;51.438;-2.006;2023-01-16T15:15:59;2.72;;;0.73;;
77709;SDS011;66880;51.438;-2.006;2023-01-16T15:18:27;1.02;;;0.88;;
77709;SDS011;66880;51.438;-2.006;2023-01-16T15:21:18;2.75;;;1.23;;
77709;SDS011;66880;51.438;-2.006;2023-01-16T15:24:04;2.70;;;1.50;;
77709;SDS011;66880;51.438;-2.006;2023-01-16T15:32:14;1.65;;;0.80;;
77709;SDS011;66880;51.438;-2.006;2023-01-16T15:34:47;0.93;;;0.80;;
77709;SDS011;66880;51.438;-2.006;2023-01-16T15:37:49;2.55;;;0.77;;
77709;SDS011;66880;51.438;-2.006;2023-01-16T15:40:34;2.42;;;0.60;;
77709;SDS011;66880;51.438;-2.006;2023-01-16T15:43:14;1.50;;;0.77;;
77709;SDS011;66880;51.438;-2.006;2023-01-16T15:51:31;2.05;;;1.23;;
77709;SDS011;66880;51.438;-2.006;2023-01-16T15:54:13;1.30;;;1.20;;
77709;SDS011;66880;51.438;-2.006;2023-01-16T15:56:44;1.48;;;1.35;;
77709;SDS011;66880;51.438;-2.006;2023-01-16T16:02:16;2.83;;;1.63;;
77709;SDS011;66880;51.438;-2.006;2023-01-16T16:04:41;2.20;;;1.52;;
77709;SDS011;66880;51.438;-2.006;2023-01-16T16:07:08;4.13;;;1.52;;
77709;SDS011;66880;51.438;-2.006;2023-01-16T16:09:36;1.48;;;1.05;;
77709;SDS011;66880;51.438;-2.006;2023-01-16T16:12:03;1.60;;;1.40;;
77709;SDS011;66880;51.438;-2.006;2023-01-16T16:14:34;1.77;;;1.17;;
77709;SDS011;66880;51.438;-2.006;2023-01-16T16:17:26;4.00;;;1.23;;
77709;SDS011;66880;51.438;-2.006;2023-01-16T16:20:29;1.65;;;1.25;;
77709;SDS011;66880;51.438;-2.006;2023-01-16T16:25:57;1.92;;;1.40;;
77709;SDS011;66880;51.438;-2.006;2023-01-16T16:33:25;4.47;;;1.95;;
77709;SDS011;66880;51.438;-2.006;2023-01-16T16:36:13;4.68;;;1.50;;
77709;SDS011;66880;51.438;-2.006;2023-01-16T16:38:41;8.48;;;1.80;;
77709;SDS011;66880;51.438;-2.006;2023-01-16T16:43:49;3.53;;;1.52;;
77709;SDS011;66880;51.438;-2.006;2023-01-16T16:48:53;5.53;;;1.80;;
77709;SDS011;66880;51.438;-2.006;2023-01-16T16:53:57;4.18;;;1.77;;
77709;SDS011;66880;51.438;-2.006;2023-01-16T16:56:43;2.95;;;1.55;;
77709;SDS011;66880;51.438;-2.006;2023-01-16T16:59:25;4.97;;;2.45;;
77709;SDS011;66880;51.438;-2.006;2023-01-16T17:02:09;8.27;;;4.70;;
77709;SDS011;66880;51.438;-2.006;2023-01-16T17:05:02;11.60;;;5.68;;
77709;SDS011;66880;51.438;-2.006;2023-01-16T17:07:43;15.73;;;7.05;;
77709;SDS011;66880;51.438;-2.006;2023-01-16T17:10:24;13.98;;;6.90;;
77709;SDS011;66880;51.438;-2.006;2023-01-16T17:13:04;12.27;;;7.15;;
77709;SDS011;66880;51.438;-2.006;2023-01-16T17:18:28;16.10;;;6.55;;
77709;SDS011;66880;51.438;-2.006;2023-01-16T17:21:14;15.07;;;6.90;;
77709;SDS011;66880;51.438;-2.006;2023-01-16T17:26:33;14.73;;;7.28;;
77709;SDS011;66880;51.438;-2.006;2023-01-16T17:29:13;12.95;;;6.70;;
77709;SDS011;66880;51.438;-2.006;2023-01-16T17:31:59;14.90;;;6.95;;
77709;SDS011;66880;51.438;-2.006;2023-01-16T17:34:40;11.88;;;6.80;;
77709;SDS011;66880;51.438;-2.006;2023-01-16T17:37:25;11.10;;;6.45;;
77709;SDS011;66880;51.438;-2.006;2023-01-16T17:40:05;14.30;;;6.55;;
77709;SDS011;66880;51.438;-2.006;2023-01-16T17:42:46;16.48;;;7.22;;
77709;SDS011;66880;51.438;-2.006;2023-01-16T17:45:44;11.65;;;6.65;;
77709;SDS011;66880;51.438;-2.006;2023-01-16T17:48:28;12.32;;;5.63;;
77709;SDS011;66880;51.438;-2.006;2023-01-16T17:51:11;11.93;;;5.90;;
77709;SDS011;66880;51.438;-2.006;2023-01-16T17:53:57;10.45;;;5.65;;
77709;SDS011;66880;51.438;-2.006;2023-01-16T17:56:56;11.40;;;5.10;;
77709;SDS011;66880;51.438;-2.006;2023-01-16T17:59:43;14.30;;;5.55;;
77709;SDS011;66880;51.438;-2.006;2023-01-16T18:02:23;12.63;;;6.18;;
77709;SDS011;66880;51.438;-2.006;2023-01-16T18:05:03;12.30;;;5.82;;
77709;SDS011;66880;51.438;-2.006;2023-01-16T18:07:43;12.52;;;6.05;;
77709;SDS011;66880;51.438;-2.006;2023-01-16T18:10:29;29.70;;;8.18;;
77709;SDS011;66880;51.438;-2.006;2023-01-16T18:13:09;14.77;;;6.22;;
77709;SDS011;66880;51.438;-2.006;2023-01-16T18:16:05;16.50;;;5.97;;
77709;SDS011;66880;51.438;-2.006;2023-01-16T18:19:01;12.23;;;5.97;;
77709;SDS011;66880;51.438;-2.006;2023-01-16T18:21:47;12.93;;;5.57;;
77709;SDS011;66880;51.438;-2.006;2023-01-16T18:24:28;15.80;;;5.72;;
77709;SDS011;66880;51.438;-2.006;2023-01-16T18:27:06;16.52;;;6.70;;
77709;SDS011;66880;51.438;-2.006;2023-01-16T18:29:46;13.35;;;5.85;;
77709;SDS011;66880;51.438;-2.006;2023-01-16T18:32:29;17.83;;;7.47;;
77709;SDS011;66880;51.438;-2.006;2023-01-16T18:35:09;15.73;;;7.32;;
77709;SDS011;66880;51.438;-2.006;2023-01-16T18:37:56;20.80;;;9.75;;